PWSweather.com
Personal Weather Stations
Station Observations
KNJEWING3
Ewing, NJ 08638

Ewing, NJ 08638

Lat: 40.25193, Lon: -74.77511

Elevation: 106

Station Type: Oregon Scientific WMR968 / SRS100 Solar Radiation Shield. Rain Data At www.cocorahs.org (NJ-MC-11)

Latest ConditionsUpdated 7:54:04 AM EDT Saturday, Apr 19, 2014
Currently Today's Max Today's Min Today's Average
Temperature 41.9°F5.5°C 41.9°F5.5°C 36.9°F2.7°C 38.8°F3.8°C
Dew Point 37.1°F2.8°C 37.1°F2.8°C 26.2°F-3.2°C 28.9°F-1.7°C
Winds Calm Calm 3.8 mph NNW6.1 kmh NNW - 0.1 mph 0.2 kmh
Wind Gusts -- 4.3 mph6.9 kmh - -
Humidity 83% 84% 56% 67%
Pressure 17.72 in600.1 mb 17.72 in600.1 mb 17.72 in600.1 mb -
Hour Temp Dew Point Humidity Winds Wind Gusts Pressure Precip Precip Rate Daily Precip Total
07:54 AM 41.9°F5.5°C 37.1°F2.8°C 83% Calm Calm -- 17.72 in600.1 mb 0.00 in0.0 mm 0.00 in/hr0.0 mm/hr 0.00 in0.0 mm
07:52 AM 41.9°F5.5°C 37.1°F2.8°C 83% Calm Calm -- 17.72 in600.1 mb 0.00 in0.0 mm 0.00 in/hr0.0 mm/hr 0.00 in0.0 mm
07:51 AM 41.9°F5.5°C 37.1°F2.8°C 83% Calm Calm -- 17.72 in600.1 mb 0.00 in0.0 mm 0.00 in/hr0.0 mm/hr 0.00 in0.0 mm
07:50 AM 41.9°F5.5°C 37.1°F2.8°C 83% Calm Calm -- 17.72 in600.1 mb 0.00 in0.0 mm 0.00 in/hr0.0 mm/hr 0.00 in0.0 mm
07:49 AM 41.7°F5.4°C 37.0°F2.8°C 83% Calm Calm -- 17.72 in600.1 mb 0.00 in0.0 mm 0.00 in/hr0.0 mm/hr 0.00 in0.0 mm
07:48 AM 41.7°F5.4°C 37.0°F2.8°C 83% Calm Calm -- 17.72 in600.1 mb 0.00 in0.0 mm 0.00 in/hr0.0 mm/hr 0.00 in0.0 mm
07:47 AM 41.2°F5.1°C 36.4°F2.4°C 83% Calm Calm -- 17.72 in600.1 mb 0.00 in0.0 mm 0.00 in/hr0.0 mm/hr 0.00 in0.0 mm
07:45 AM 41.2°F5.1°C 36.4°F2.4°C 83% Calm Calm -- 17.72 in600.1 mb 0.00 in0.0 mm 0.00 in/hr0.0 mm/hr 0.00 in0.0 mm
07:44 AM 41.2°F5.1°C 36.4°F2.4°C 83% Calm Calm -- 17.72 in600.1 mb 0.00 in0.0 mm 0.00 in/hr0.0 mm/hr 0.00 in0.0 mm
07:42 AM 41.0°F5.0°C 36.2°F2.3°C 83% Calm Calm -- 17.72 in600.1 mb 0.00 in0.0 mm 0.00 in/hr0.0 mm/hr 0.00 in0.0 mm
07:41 AM 40.6°F4.8°C 36.2°F2.3°C 84% Calm Calm 3.8 mph6.1 kmh 17.72 in600.1 mb 0.00 in0.0 mm 0.00 in/hr0.0 mm/hr 0.00 in0.0 mm
07:39 AM 40.6°F4.8°C 36.2°F2.3°C 84% 3.8 mph NNW6.1 kmh NNW 3.8 mph6.1 kmh 17.72 in600.1 mb 0.00 in0.0 mm 0.00 in/hr0.0 mm/hr 0.00 in0.0 mm
07:38 AM 39.9°F4.4°C 35.2°F1.8°C 83% 3.8 mph NNW6.1 kmh NNW 3.8 mph6.1 kmh 17.72 in600.1 mb 0.00 in0.0 mm 0.00 in/hr0.0 mm/hr 0.00 in0.0 mm
07:37 AM 39.9°F4.4°C 35.2°F1.8°C 83% 3.8 mph NNW6.1 kmh NNW 3.8 mph6.1 kmh 17.72 in600.1 mb 0.00 in0.0 mm 0.00 in/hr0.0 mm/hr 0.00 in0.0 mm
07:35 AM 39.9°F4.4°C 35.2°F1.8°C 83% Calm Calm -- 17.72 in600.1 mb 0.00 in0.0 mm 0.00 in/hr0.0 mm/hr 0.00 in0.0 mm
07:34 AM 39.9°F4.4°C 35.2°F1.8°C 83% Calm Calm -- 17.72 in600.1 mb 0.00 in0.0 mm 0.00 in/hr0.0 mm/hr 0.00 in0.0 mm
07:33 AM 39.9°F4.4°C 35.2°F1.8°C 83% Calm Calm -- 17.72 in600.1 mb 0.00 in0.0 mm 0.00 in/hr0.0 mm/hr 0.00 in0.0 mm
07:31 AM 39.2°F4.0°C 33.9°F1.1°C 81% Calm Calm -- 17.72 in600.1 mb 0.00 in0.0 mm 0.00 in/hr0.0 mm/hr 0.00 in0.0 mm
07:30 AM 39.2°F4.0°C 33.9°F1.1°C 81% Calm Calm -- 17.72 in600.1 mb 0.00 in0.0 mm 0.00 in/hr0.0 mm/hr 0.00 in0.0 mm
07:29 AM 39.2°F4.0°C 33.9°F1.1°C 81% Calm Calm -- 17.72 in600.1 mb 0.00 in0.0 mm 0.00 in/hr0.0 mm/hr 0.00 in0.0 mm
07:27 AM 39.2°F4.0°C 33.9°F1.1°C 81% Calm Calm -- 17.72 in600.1 mb 0.00 in0.0 mm 0.00 in/hr0.0 mm/hr 0.00 in0.0 mm
07:26 AM 39.2°F4.0°C 33.9°F1.1°C 81% Calm Calm -- 17.72 in600.1 mb 0.00 in0.0 mm 0.00 in/hr0.0 mm/hr 0.00 in0.0 mm
07:24 AM 39.2°F4.0°C 33.9°F1.1°C 81% Calm Calm -- 17.72 in600.1 mb 0.00 in0.0 mm 0.00 in/hr0.0 mm/hr 0.00 in0.0 mm
07:23 AM 38.8°F3.8°C 33.5°F0.8°C 81% Calm Calm -- 17.72 in600.1 mb 0.00 in0.0 mm 0.00 in/hr0.0 mm/hr 0.00 in0.0 mm
07:21 AM 38.8°F3.8°C 33.5°F0.8°C 81% Calm Calm -- 17.72 in600.1 mb 0.00 in0.0 mm 0.00 in/hr0.0 mm/hr 0.00 in0.0 mm
07:20 AM 38.8°F3.8°C 33.5°F0.8°C 81% Calm Calm -- 17.72 in600.1 mb 0.00 in0.0 mm 0.00 in/hr0.0 mm/hr 0.00 in0.0 mm
07:18 AM 38.8°F3.8°C 33.5°F0.8°C 81% Calm Calm -- 17.72 in600.1 mb 0.00 in0.0 mm 0.00 in/hr0.0 mm/hr 0.00 in0.0 mm
07:17 AM 38.7°F3.7°C 33.3°F0.7°C 81% Calm Calm -- 17.72 in600.1 mb 0.00 in0.0 mm 0.00 in/hr0.0 mm/hr 0.00 in0.0 mm
07:16 AM 38.7°F3.7°C 33.3°F0.7°C 81% Calm Calm -- 17.72 in600.1 mb 0.00 in0.0 mm 0.00 in/hr0.0 mm/hr 0.00 in0.0 mm
07:15 AM 38.7°F3.7°C 33.3°F0.7°C 81% Calm Calm -- 17.72 in600.1 mb 0.00 in0.0 mm 0.00 in/hr0.0 mm/hr 0.00 in0.0 mm
07:13 AM 38.1°F3.4°C 32.5°F0.3°C 80% Calm Calm -- 17.72 in600.1 mb 0.00 in0.0 mm 0.00 in/hr0.0 mm/hr 0.00 in0.0 mm
07:12 AM 38.1°F3.4°C 32.5°F0.3°C 80% Calm Calm -- 17.72 in600.1 mb 0.00 in0.0 mm 0.00 in/hr0.0 mm/hr 0.00 in0.0 mm
07:11 AM 38.1°F3.4°C 32.5°F0.3°C 80% Calm Calm -- 17.72 in600.1 mb 0.00 in0.0 mm 0.00 in/hr0.0 mm/hr 0.00 in0.0 mm
07:09 AM 38.1°F3.4°C 32.5°F0.3°C 80% Calm Calm -- 17.72 in600.1 mb 0.00 in0.0 mm 0.00 in/hr0.0 mm/hr 0.00 in0.0 mm
07:07 AM 38.1°F3.4°C 32.5°F0.3°C 80% Calm Calm -- 17.72 in600.1 mb 0.00 in0.0 mm 0.00 in/hr0.0 mm/hr 0.00 in0.0 mm
07:06 AM 37.9°F3.3°C 32.3°F0.2°C 80% Calm Calm -- 17.72 in600.1 mb 0.00 in0.0 mm 0.00 in/hr0.0 mm/hr 0.00 in0.0 mm
07:05 AM 37.9°F3.3°C 32.3°F0.2°C 80% Calm Calm -- 17.72 in600.1 mb 0.00 in0.0 mm 0.00 in/hr0.0 mm/hr 0.00 in0.0 mm
07:04 AM 37.6°F3.1°C 31.7°F-0.2°C 79% Calm Calm -- 17.72 in600.1 mb 0.00 in0.0 mm 0.00 in/hr0.0 mm/hr 0.00 in0.0 mm
07:03 AM 37.6°F3.1°C 31.7°F-0.2°C 79% Calm Calm -- 17.72 in600.1 mb 0.00 in0.0 mm 0.00 in/hr0.0 mm/hr 0.00 in0.0 mm
07:01 AM 37.6°F3.1°C 31.7°F-0.2°C 79% Calm Calm -- 17.72 in600.1 mb 0.00 in0.0 mm 0.00 in/hr0.0 mm/hr 0.00 in0.0 mm
07:00 AM 37.6°F3.1°C 31.7°F-0.2°C 79% Calm Calm -- 17.72 in600.1 mb 0.00 in0.0 mm 0.00 in/hr0.0 mm/hr 0.00 in0.0 mm
06:59 AM 37.6°F3.1°C 31.7°F-0.2°C 79% Calm Calm -- 17.72 in600.1 mb 0.00 in0.0 mm 0.00 in/hr0.0 mm/hr 0.00 in0.0 mm
06:58 AM 37.6°F3.1°C 31.7°F-0.2°C 79% Calm Calm -- 17.72 in600.1 mb 0.00 in0.0 mm 0.00 in/hr0.0 mm/hr 0.00 in0.0 mm
06:57 AM 37.6°F3.1°C 31.4°F-0.3°C 78% Calm Calm -- 17.72 in600.1 mb 0.00 in0.0 mm 0.00 in/hr0.0 mm/hr 0.00 in0.0 mm
06:56 AM 37.6°F3.1°C 31.4°F-0.3°C 78% Calm Calm -- 17.72 in600.1 mb 0.00 in0.0 mm 0.00 in/hr0.0 mm/hr 0.00 in0.0 mm
06:55 AM 37.6°F3.1°C 31.4°F-0.3°C 78% Calm Calm -- 17.72 in600.1 mb 0.00 in0.0 mm 0.00 in/hr0.0 mm/hr 0.00 in0.0 mm
06:53 AM 37.4°F3.0°C 30.9°F-0.6°C 77% Calm Calm -- 17.72 in600.1 mb 0.00 in0.0 mm 0.00 in/hr0.0 mm/hr 0.00 in0.0 mm
06:52 AM 37.4°F3.0°C 30.9°F-0.6°C 77% Calm Calm -- 17.72 in600.1 mb 0.00 in0.0 mm 0.00 in/hr0.0 mm/hr 0.00 in0.0 mm
06:50 AM 37.4°F3.0°C 30.9°F-0.6°C 77% Calm Calm -- 17.72 in600.1 mb 0.00 in0.0 mm 0.00 in/hr0.0 mm/hr 0.00 in0.0 mm
06:49 AM 37.4°F3.0°C 30.9°F-0.6°C 77% Calm Calm -- 17.72 in600.1 mb 0.00 in0.0 mm 0.00 in/hr0.0 mm/hr 0.00 in0.0 mm
06:48 AM 37.4°F3.0°C 30.9°F-0.6°C 77% Calm Calm -- 17.72 in600.1 mb 0.00 in0.0 mm 0.00 in/hr0.0 mm/hr 0.00 in0.0 mm
06:46 AM 37.2°F2.9°C 30.7°F-0.7°C 77% Calm Calm -- 17.72 in600.1 mb 0.00 in0.0 mm 0.00 in/hr0.0 mm/hr 0.00 in0.0 mm
06:45 AM 37.2°F2.9°C 30.7°F-0.7°C 77% Calm Calm -- 17.72 in600.1 mb 0.00 in0.0 mm 0.00 in/hr0.0 mm/hr 0.00 in0.0 mm
06:44 AM 37.2°F2.9°C 30.7°F-0.7°C 77% Calm Calm -- 17.72 in600.1 mb 0.00 in0.0 mm 0.00 in/hr0.0 mm/hr 0.00 in0.0 mm
06:42 AM 37.2°F2.9°C 30.7°F-0.7°C 77% Calm Calm -- 17.72 in600.1 mb 0.00 in0.0 mm 0.00 in/hr0.0 mm/hr 0.00 in0.0 mm
06:41 AM 37.2°F2.9°C 30.7°F-0.7°C 77% Calm Calm -- 17.72 in600.1 mb 0.00 in0.0 mm 0.00 in/hr0.0 mm/hr 0.00 in0.0 mm
06:39 AM 37.2°F2.9°C 30.7°F-0.7°C 77% Calm Calm -- 17.72 in600.1 mb 0.00 in0.0 mm 0.00 in/hr0.0 mm/hr 0.00 in0.0 mm
06:38 AM 37.2°F2.9°C 30.7°F-0.7°C 77% Calm Calm -- 17.72 in600.1 mb 0.00 in0.0 mm 0.00 in/hr0.0 mm/hr 0.00 in0.0 mm
06:37 AM 37.2°F2.9°C 30.7°F-0.7°C 77% Calm Calm -- 17.72 in600.1 mb 0.00 in0.0 mm 0.00 in/hr0.0 mm/hr 0.00 in0.0 mm
06:36 AM 37.2°F2.9°C 30.7°F-0.7°C 77% Calm Calm -- 17.72 in600.1 mb 0.00 in0.0 mm 0.00 in/hr0.0 mm/hr 0.00 in0.0 mm
06:35 AM 37.0°F2.8°C 30.2°F-1.0°C 76% Calm Calm -- 17.72 in600.1 mb 0.00 in0.0 mm 0.00 in/hr0.0 mm/hr 0.00 in0.0 mm
06:34 AM 37.0°F2.8°C 30.2°F-1.0°C 76% Calm Calm -- 17.72 in600.1 mb 0.00 in0.0 mm 0.00 in/hr0.0 mm/hr 0.00 in0.0 mm
06:33 AM 37.0°F2.8°C 30.2°F-1.0°C 76% Calm Calm -- 17.72 in600.1 mb 0.00 in0.0 mm 0.00 in/hr0.0 mm/hr 0.00 in0.0 mm
06:31 AM 37.0°F2.8°C 30.2°F-1.0°C 76% Calm Calm -- 17.72 in600.1 mb 0.00 in0.0 mm 0.00 in/hr0.0 mm/hr 0.00 in0.0 mm
06:30 AM 37.0°F2.8°C 30.2°F-1.0°C 76% Calm Calm -- 17.72 in600.1 mb 0.00 in0.0 mm 0.00 in/hr0.0 mm/hr 0.00 in0.0 mm
06:29 AM 37.0°F2.8°C 29.9°F-1.2°C 75% Calm Calm -- 17.72 in600.1 mb 0.00 in0.0 mm 0.00 in/hr0.0 mm/hr 0.00 in0.0 mm
06:28 AM 37.0°F2.8°C 29.9°F-1.2°C 75% Calm Calm -- 17.72 in600.1 mb 0.00 in0.0 mm 0.00 in/hr0.0 mm/hr 0.00 in0.0 mm
06:27 AM 37.0°F2.8°C 29.9°F-1.2°C 75% Calm Calm -- 17.72 in600.1 mb 0.00 in0.0 mm 0.00 in/hr0.0 mm/hr 0.00 in0.0 mm
06:26 AM 37.0°F2.8°C 29.9°F-1.2°C 75% Calm Calm -- 17.72 in600.1 mb 0.00 in0.0 mm 0.00 in/hr0.0 mm/hr 0.00 in0.0 mm
06:24 AM 37.0°F2.8°C 29.9°F-1.2°C 75% Calm Calm -- 17.72 in600.1 mb 0.00 in0.0 mm 0.00 in/hr0.0 mm/hr 0.00 in0.0 mm
06:22 AM 37.0°F2.8°C 29.9°F-1.2°C 75% Calm Calm -- 17.72 in600.1 mb 0.00 in0.0 mm 0.00 in/hr0.0 mm/hr 0.00 in0.0 mm
06:20 AM 36.9°F2.7°C 29.4°F-1.4°C 74% Calm Calm -- 17.72 in600.1 mb 0.00 in0.0 mm 0.00 in/hr0.0 mm/hr 0.00 in0.0 mm
06:19 AM 36.9°F2.7°C 29.4°F-1.4°C 74% Calm Calm -- 17.72 in600.1 mb 0.00 in0.0 mm 0.00 in/hr0.0 mm/hr 0.00 in0.0 mm
06:17 AM 36.9°F2.7°C 29.4°F-1.4°C 74% Calm Calm -- 17.72 in600.1 mb 0.00 in0.0 mm 0.00 in/hr0.0 mm/hr 0.00 in0.0 mm
06:15 AM 36.9°F2.7°C 29.4°F-1.4°C 74% Calm Calm -- 17.72 in600.1 mb 0.00 in0.0 mm 0.00 in/hr0.0 mm/hr 0.00 in0.0 mm
06:14 AM 37.0°F2.8°C 29.5°F-1.4°C 74% Calm Calm -- 17.72 in600.1 mb 0.00 in0.0 mm 0.00 in/hr0.0 mm/hr 0.00 in0.0 mm
06:13 AM 37.0°F2.8°C 29.5°F-1.4°C 74% Calm Calm -- 17.72 in600.1 mb 0.00 in0.0 mm 0.00 in/hr0.0 mm/hr 0.00 in0.0 mm
06:12 AM 37.0°F2.8°C 29.2°F-1.6°C 73% Calm Calm -- 17.72 in600.1 mb 0.00 in0.0 mm 0.00 in/hr0.0 mm/hr 0.00 in0.0 mm
06:10 AM 37.0°F2.8°C 29.2°F-1.6°C 73% Calm Calm -- 17.72 in600.1 mb 0.00 in0.0 mm 0.00 in/hr0.0 mm/hr 0.00 in0.0 mm
06:08 AM 37.0°F2.8°C 29.2°F-1.6°C 73% Calm Calm -- 17.72 in600.1 mb 0.00 in0.0 mm 0.00 in/hr0.0 mm/hr 0.00 in0.0 mm
06:07 AM 37.0°F2.8°C 29.2°F-1.6°C 73% Calm Calm -- 17.72 in600.1 mb 0.00 in0.0 mm 0.00 in/hr0.0 mm/hr 0.00 in0.0 mm
06:06 AM 37.0°F2.8°C 29.2°F-1.6°C 73% Calm Calm -- 17.72 in600.1 mb 0.00 in0.0 mm 0.00 in/hr0.0 mm/hr 0.00 in0.0 mm
06:04 AM 37.0°F2.8°C 29.2°F-1.6°C 73% Calm Calm -- 17.72 in600.1 mb 0.00 in0.0 mm 0.00 in/hr0.0 mm/hr 0.00 in0.0 mm
06:03 AM 37.2°F2.9°C 29.4°F-1.4°C 73% Calm Calm -- 17.72 in600.1 mb 0.00 in0.0 mm 0.00 in/hr0.0 mm/hr 0.00 in0.0 mm
06:01 AM 37.2°F2.9°C 29.4°F-1.4°C 73% Calm Calm -- 17.72 in600.1 mb 0.00 in0.0 mm 0.00 in/hr0.0 mm/hr 0.00 in0.0 mm
06:00 AM 37.2°F2.9°C 29.4°F-1.4°C 73% Calm Calm -- 17.72 in600.1 mb 0.00 in0.0 mm 0.00 in/hr0.0 mm/hr 0.00 in0.0 mm
05:59 AM 37.2°F2.9°C 29.4°F-1.4°C 73% Calm Calm -- 17.72 in600.1 mb 0.00 in0.0 mm 0.00 in/hr0.0 mm/hr 0.00 in0.0 mm
05:57 AM 37.2°F2.9°C 29.0°F-1.7°C 72% Calm Calm -- 17.72 in600.1 mb 0.00 in0.0 mm 0.00 in/hr0.0 mm/hr 0.00 in0.0 mm
05:56 AM 37.2°F2.9°C 29.0°F-1.7°C 72% Calm Calm -- 17.72 in600.1 mb 0.00 in0.0 mm 0.00 in/hr0.0 mm/hr 0.00 in0.0 mm
05:55 AM 37.2°F2.9°C 29.0°F-1.7°C 72% Calm Calm -- 17.72 in600.1 mb 0.00 in0.0 mm 0.00 in/hr0.0 mm/hr 0.00 in0.0 mm
05:53 AM 37.2°F2.9°C 29.0°F-1.7°C 72% Calm Calm -- 17.72 in600.1 mb 0.00 in0.0 mm 0.00 in/hr0.0 mm/hr 0.00 in0.0 mm
05:52 AM 37.4°F3.0°C 29.2°F-1.6°C 72% Calm Calm -- 17.72 in600.1 mb 0.00 in0.0 mm 0.00 in/hr0.0 mm/hr 0.00 in0.0 mm
05:51 AM 37.4°F3.0°C 29.2°F-1.6°C 72% Calm Calm -- 17.72 in600.1 mb 0.00 in0.0 mm 0.00 in/hr0.0 mm/hr 0.00 in0.0 mm
05:50 AM 37.4°F3.0°C 29.2°F-1.6°C 72% Calm Calm -- 17.72 in600.1 mb 0.00 in0.0 mm 0.00 in/hr0.0 mm/hr 0.00 in0.0 mm
05:49 AM 37.4°F3.0°C 29.2°F-1.6°C 72% Calm Calm -- 17.72 in600.1 mb 0.00 in0.0 mm 0.00 in/hr0.0 mm/hr 0.00 in0.0 mm
05:48 AM 37.4°F3.0°C 28.9°F-1.7°C 71% Calm Calm -- 17.72 in600.1 mb 0.00 in0.0 mm 0.00 in/hr0.0 mm/hr 0.00 in0.0 mm
05:46 AM 37.4°F3.0°C 28.9°F-1.7°C 71% Calm Calm -- 17.72 in600.1 mb 0.00 in0.0 mm 0.00 in/hr0.0 mm/hr 0.00 in0.0 mm
05:45 AM 37.4°F3.0°C 28.9°F-1.7°C 71% Calm Calm -- 17.72 in600.1 mb 0.00 in0.0 mm 0.00 in/hr0.0 mm/hr 0.00 in0.0 mm
05:43 AM 37.6°F3.1°C 29.0°F-1.7°C 71% Calm Calm -- 17.72 in600.1 mb 0.00 in0.0 mm 0.00 in/hr0.0 mm/hr 0.00 in0.0 mm
05:42 AM 37.6°F3.1°C 29.0°F-1.7°C 71% Calm Calm -- 17.72 in600.1 mb 0.00 in0.0 mm 0.00 in/hr0.0 mm/hr 0.00 in0.0 mm
05:41 AM 37.6°F3.1°C 29.0°F-1.7°C 71% Calm Calm -- 17.72 in600.1 mb 0.00 in0.0 mm 0.00 in/hr0.0 mm/hr 0.00 in0.0 mm
05:39 AM 37.6°F3.1°C 29.0°F-1.7°C 71% Calm Calm -- 17.72 in600.1 mb 0.00 in0.0 mm 0.00 in/hr0.0 mm/hr 0.00 in0.0 mm
05:38 AM 37.6°F3.1°C 29.0°F-1.7°C 71% Calm Calm -- 17.72 in600.1 mb 0.00 in0.0 mm 0.00 in/hr0.0 mm/hr 0.00 in0.0 mm
05:36 AM 37.8°F3.2°C 29.2°F-1.6°C 71% Calm Calm -- 17.72 in600.1 mb 0.00 in0.0 mm 0.00 in/hr0.0 mm/hr 0.00 in0.0 mm
05:35 AM 37.8°F3.2°C 29.2°F-1.6°C 71% Calm Calm -- 17.72 in600.1 mb 0.00 in0.0 mm 0.00 in/hr0.0 mm/hr 0.00 in0.0 mm
05:34 AM 37.8°F3.2°C 29.2°F-1.6°C 71% Calm Calm -- 17.72 in600.1 mb 0.00 in0.0 mm 0.00 in/hr0.0 mm/hr 0.00 in0.0 mm
05:32 AM 37.8°F3.2°C 29.2°F-1.6°C 71% Calm Calm -- 17.72 in600.1 mb 0.00 in0.0 mm 0.00 in/hr0.0 mm/hr 0.00 in0.0 mm
05:31 AM 37.8°F3.2°C 29.2°F-1.6°C 71% Calm Calm -- 17.72 in600.1 mb 0.00 in0.0 mm 0.00 in/hr0.0 mm/hr 0.00 in0.0 mm
05:29 AM 37.9°F3.3°C 29.0°F-1.7°C 70% Calm Calm -- 17.72 in600.1 mb 0.00 in0.0 mm 0.00 in/hr0.0 mm/hr 0.00 in0.0 mm
05:28 AM 37.9°F3.3°C 29.0°F-1.7°C 70% Calm Calm -- 17.72 in600.1 mb 0.00 in0.0 mm 0.00 in/hr0.0 mm/hr 0.00 in0.0 mm
05:27 AM 37.9°F3.3°C 29.0°F-1.7°C 70% Calm Calm -- 17.72 in600.1 mb 0.00 in0.0 mm 0.00 in/hr0.0 mm/hr 0.00 in0.0 mm
05:25 AM 37.9°F3.3°C 29.0°F-1.7°C 70% Calm Calm -- 17.72 in600.1 mb 0.00 in0.0 mm 0.00 in/hr0.0 mm/hr 0.00 in0.0 mm
05:24 AM 37.9°F3.3°C 29.0°F-1.7°C 70% Calm Calm -- 17.72 in600.1 mb 0.00 in0.0 mm 0.00 in/hr0.0 mm/hr 0.00 in0.0 mm
05:22 AM 38.1°F3.4°C 29.2°F-1.6°C 70% Calm Calm -- 17.72 in600.1 mb 0.00 in0.0 mm 0.00 in/hr0.0 mm/hr 0.00 in0.0 mm
05:21 AM 38.1°F3.4°C 29.2°F-1.6°C 70% Calm Calm -- 17.72 in600.1 mb 0.00 in0.0 mm 0.00 in/hr0.0 mm/hr 0.00 in0.0 mm
05:20 AM 38.1°F3.4°C 29.2°F-1.6°C 70% Calm Calm -- 17.72 in600.1 mb 0.00 in0.0 mm 0.00 in/hr0.0 mm/hr 0.00 in0.0 mm
05:18 AM 38.1°F3.4°C 29.2°F-1.6°C 70% Calm Calm -- 17.72 in600.1 mb 0.00 in0.0 mm 0.00 in/hr0.0 mm/hr 0.00 in0.0 mm
05:17 AM 38.1°F3.4°C 29.2°F-1.6°C 70% Calm Calm -- 17.72 in600.1 mb 0.00 in0.0 mm 0.00 in/hr0.0 mm/hr 0.00 in0.0 mm
05:15 AM 38.1°F3.4°C 29.2°F-1.6°C 70% Calm Calm -- 17.72 in600.1 mb 0.00 in0.0 mm 0.00 in/hr0.0 mm/hr 0.00 in0.0 mm
05:14 AM 38.1°F3.4°C 29.2°F-1.6°C 70% Calm Calm -- 17.72 in600.1 mb 0.00 in0.0 mm 0.00 in/hr0.0 mm/hr 0.00 in0.0 mm
05:13 AM 38.1°F3.4°C 29.2°F-1.6°C 70% Calm Calm -- 17.72 in600.1 mb 0.00 in0.0 mm 0.00 in/hr0.0 mm/hr 0.00 in0.0 mm
05:11 AM 38.3°F3.5°C 29.4°F-1.4°C 70% Calm Calm -- 17.72 in600.1 mb 0.00 in0.0 mm 0.00 in/hr0.0 mm/hr 0.00 in0.0 mm
05:10 AM 38.3°F3.5°C 29.4°F-1.4°C 70% Calm Calm -- 17.72 in600.1 mb 0.00 in0.0 mm 0.00 in/hr0.0 mm/hr 0.00 in0.0 mm
05:09 AM 38.3°F3.5°C 29.4°F-1.4°C 70% Calm Calm -- 17.72 in600.1 mb 0.00 in0.0 mm 0.00 in/hr0.0 mm/hr 0.00 in0.0 mm
05:07 AM 38.5°F3.6°C 29.6°F-1.3°C 70% Calm Calm -- 17.72 in600.1 mb 0.00 in0.0 mm 0.00 in/hr0.0 mm/hr 0.00 in0.0 mm
05:06 AM 38.5°F3.6°C 29.6°F-1.3°C 70% Calm Calm -- 17.72 in600.1 mb 0.00 in0.0 mm 0.00 in/hr0.0 mm/hr 0.00 in0.0 mm
05:05 AM 38.5°F3.6°C 29.6°F-1.3°C 70% Calm Calm -- 17.72 in600.1 mb 0.00 in0.0 mm 0.00 in/hr0.0 mm/hr 0.00 in0.0 mm
05:04 AM 38.5°F3.6°C 29.6°F-1.3°C 70% Calm Calm -- 17.72 in600.1 mb 0.00 in0.0 mm 0.00 in/hr0.0 mm/hr 0.00 in0.0 mm
05:03 AM 38.7°F3.7°C 29.7°F-1.3°C 70% Calm Calm -- 17.72 in600.1 mb 0.00 in0.0 mm 0.00 in/hr0.0 mm/hr 0.00 in0.0 mm
05:01 AM 38.7°F3.7°C 29.7°F-1.3°C 70% Calm Calm -- 17.72 in600.1 mb 0.00 in0.0 mm 0.00 in/hr0.0 mm/hr 0.00 in0.0 mm
05:00 AM 38.7°F3.7°C 29.7°F-1.3°C 70% Calm Calm -- 17.72 in600.1 mb 0.00 in0.0 mm 0.00 in/hr0.0 mm/hr 0.00 in0.0 mm
04:59 AM 38.7°F3.7°C 29.7°F-1.3°C 70% Calm Calm -- 17.72 in600.1 mb 0.00 in0.0 mm 0.00 in/hr0.0 mm/hr 0.00 in0.0 mm
04:58 AM 38.7°F3.7°C 29.7°F-1.3°C 70% Calm Calm -- 17.72 in600.1 mb 0.00 in0.0 mm 0.00 in/hr0.0 mm/hr 0.00 in0.0 mm
04:57 AM 38.8°F3.8°C 29.9°F-1.2°C 70% Calm Calm -- 17.72 in600.1 mb 0.00 in0.0 mm 0.00 in/hr0.0 mm/hr 0.00 in0.0 mm
04:56 AM 38.8°F3.8°C 29.9°F-1.2°C 70% Calm Calm -- 17.72 in600.1 mb 0.00 in0.0 mm 0.00 in/hr0.0 mm/hr 0.00 in0.0 mm
04:54 AM 38.8°F3.8°C 29.9°F-1.2°C 70% Calm Calm -- 17.72 in600.1 mb 0.00 in0.0 mm 0.00 in/hr0.0 mm/hr 0.00 in0.0 mm
04:53 AM 38.8°F3.8°C 29.9°F-1.2°C 70% Calm Calm -- 17.72 in600.1 mb 0.00 in0.0 mm 0.00 in/hr0.0 mm/hr 0.00 in0.0 mm
04:52 AM 38.8°F3.8°C 29.9°F-1.2°C 70% Calm Calm -- 17.72 in600.1 mb 0.00 in0.0 mm 0.00 in/hr0.0 mm/hr 0.00 in0.0 mm
04:51 AM 38.8°F3.8°C 29.9°F-1.2°C 70% Calm Calm -- 17.72 in600.1 mb 0.00 in0.0 mm 0.00 in/hr0.0 mm/hr 0.00 in0.0 mm
04:50 AM 38.8°F3.8°C 29.9°F-1.2°C 70% Calm Calm -- 17.72 in600.1 mb 0.00 in0.0 mm 0.00 in/hr0.0 mm/hr 0.00 in0.0 mm
04:49 AM 38.8°F3.8°C 29.9°F-1.2°C 70% Calm Calm -- 17.72 in600.1 mb 0.00 in0.0 mm 0.00 in/hr0.0 mm/hr 0.00 in0.0 mm
04:48 AM 38.8°F3.8°C 29.9°F-1.2°C 70% Calm Calm -- 17.72 in600.1 mb 0.00 in0.0 mm 0.00 in/hr0.0 mm/hr 0.00 in0.0 mm
04:46 AM 38.8°F3.8°C 29.9°F-1.2°C 70% Calm Calm -- 17.72 in600.1 mb 0.00 in0.0 mm 0.00 in/hr0.0 mm/hr 0.00 in0.0 mm
04:45 AM 38.8°F3.8°C 29.9°F-1.2°C 70% Calm Calm -- 17.72 in600.1 mb 0.00 in0.0 mm 0.00 in/hr0.0 mm/hr 0.00 in0.0 mm
04:44 AM 38.8°F3.8°C 29.9°F-1.2°C 70% Calm Calm -- 17.72 in600.1 mb 0.00 in0.0 mm 0.00 in/hr0.0 mm/hr 0.00 in0.0 mm
04:43 AM 38.8°F3.8°C 29.9°F-1.2°C 70% Calm Calm -- 17.72 in600.1 mb 0.00 in0.0 mm 0.00 in/hr0.0 mm/hr 0.00 in0.0 mm
04:42 AM 38.8°F3.8°C 29.9°F-1.2°C 70% Calm Calm -- 17.72 in600.1 mb 0.00 in0.0 mm 0.00 in/hr0.0 mm/hr 0.00 in0.0 mm
04:41 AM 38.8°F3.8°C 29.9°F-1.2°C 70% Calm Calm -- 17.72 in600.1 mb 0.00 in0.0 mm 0.00 in/hr0.0 mm/hr 0.00 in0.0 mm
04:39 AM 38.8°F3.8°C 29.9°F-1.2°C 70% Calm Calm -- 17.72 in600.1 mb 0.00 in0.0 mm 0.00 in/hr0.0 mm/hr 0.00 in0.0 mm
04:38 AM 38.8°F3.8°C 29.6°F-1.3°C 69% Calm Calm -- 17.72 in600.1 mb 0.00 in0.0 mm 0.00 in/hr0.0 mm/hr 0.00 in0.0 mm
04:37 AM 38.8°F3.8°C 29.6°F-1.3°C 69% Calm Calm -- 17.72 in600.1 mb 0.00 in0.0 mm 0.00 in/hr0.0 mm/hr 0.00 in0.0 mm
04:36 AM 38.8°F3.8°C 29.6°F-1.3°C 69% Calm Calm -- 17.72 in600.1 mb 0.00 in0.0 mm 0.00 in/hr0.0 mm/hr 0.00 in0.0 mm
04:35 AM 38.8°F3.8°C 29.6°F-1.3°C 69% Calm Calm 2.7 mph4.3 kmh 17.72 in600.1 mb 0.00 in0.0 mm 0.00 in/hr0.0 mm/hr 0.00 in0.0 mm
04:34 AM 38.8°F3.8°C 29.6°F-1.3°C 69% 2.7 mph SSW4.3 kmh SSW 2.7 mph4.3 kmh 17.72 in600.1 mb 0.00 in0.0 mm 0.00 in/hr0.0 mm/hr 0.00 in0.0 mm
04:32 AM 38.8°F3.8°C 29.6°F-1.3°C 69% Calm Calm -- 17.72 in600.1 mb 0.00 in0.0 mm 0.00 in/hr0.0 mm/hr 0.00 in0.0 mm
04:30 AM 38.8°F3.8°C 29.6°F-1.3°C 69% Calm Calm -- 17.72 in600.1 mb 0.00 in0.0 mm 0.00 in/hr0.0 mm/hr 0.00 in0.0 mm
04:29 AM 38.8°F3.8°C 29.6°F-1.3°C 69% Calm Calm -- 17.72 in600.1 mb 0.00 in0.0 mm 0.00 in/hr0.0 mm/hr 0.00 in0.0 mm
04:28 AM 38.7°F3.7°C 29.4°F-1.4°C 69% Calm Calm -- 17.72 in600.1 mb 0.00 in0.0 mm 0.00 in/hr0.0 mm/hr 0.00 in0.0 mm
04:26 AM 38.7°F3.7°C 29.4°F-1.4°C 69% Calm Calm -- 17.72 in600.1 mb 0.00 in0.0 mm 0.00 in/hr0.0 mm/hr 0.00 in0.0 mm
04:25 AM 38.7°F3.7°C 29.4°F-1.4°C 69% Calm Calm -- 17.72 in600.1 mb 0.00 in0.0 mm 0.00 in/hr0.0 mm/hr 0.00 in0.0 mm
04:23 AM 38.7°F3.7°C 29.4°F-1.4°C 69% Calm Calm -- 17.72 in600.1 mb 0.00 in0.0 mm 0.00 in/hr0.0 mm/hr 0.00 in0.0 mm
04:22 AM 38.7°F3.7°C 29.4°F-1.4°C 69% Calm Calm -- 17.72 in600.1 mb 0.00 in0.0 mm 0.00 in/hr0.0 mm/hr 0.00 in0.0 mm
04:21 AM 38.7°F3.7°C 29.4°F-1.4°C 69% Calm Calm -- 17.72 in600.1 mb 0.00 in0.0 mm 0.00 in/hr0.0 mm/hr 0.00 in0.0 mm
04:20 AM 38.7°F3.7°C 29.4°F-1.4°C 69% Calm Calm -- 17.72 in600.1 mb 0.00 in0.0 mm 0.00 in/hr0.0 mm/hr 0.00 in0.0 mm
04:18 AM 38.5°F3.6°C 28.9°F-1.7°C 68% Calm Calm -- 17.72 in600.1 mb 0.00 in0.0 mm 0.00 in/hr0.0 mm/hr 0.00 in0.0 mm
04:17 AM 38.5°F3.6°C 28.9°F-1.7°C 68% Calm Calm -- 17.72 in600.1 mb 0.00 in0.0 mm 0.00 in/hr0.0 mm/hr 0.00 in0.0 mm
04:16 AM 38.5°F3.6°C 28.9°F-1.7°C 68% Calm Calm -- 17.72 in600.1 mb 0.00 in0.0 mm 0.00 in/hr0.0 mm/hr 0.00 in0.0 mm
04:15 AM 38.5°F3.6°C 28.9°F-1.7°C 68% Calm Calm -- 17.72 in600.1 mb 0.00 in0.0 mm 0.00 in/hr0.0 mm/hr 0.00 in0.0 mm
04:14 AM 38.5°F3.6°C 28.9°F-1.7°C 68% Calm Calm -- 17.72 in600.1 mb 0.00 in0.0 mm 0.00 in/hr0.0 mm/hr 0.00 in0.0 mm
04:13 AM 38.5°F3.6°C 28.9°F-1.7°C 68% Calm Calm -- 17.72 in600.1 mb 0.00 in0.0 mm 0.00 in/hr0.0 mm/hr 0.00 in0.0 mm
04:12 AM 38.5°F3.6°C 28.9°F-1.7°C 68% Calm Calm -- 17.72 in600.1 mb 0.00 in0.0 mm 0.00 in/hr0.0 mm/hr 0.00 in0.0 mm
04:11 AM 38.5°F3.6°C 28.9°F-1.7°C 68% Calm Calm -- 17.72 in600.1 mb 0.00 in0.0 mm 0.00 in/hr0.0 mm/hr 0.00 in0.0 mm
04:10 AM 38.7°F3.7°C 29.0°F-1.7°C 68% Calm Calm -- 17.72 in600.1 mb 0.00 in0.0 mm 0.00 in/hr0.0 mm/hr 0.00 in0.0 mm
04:08 AM 38.7°F3.7°C 29.0°F-1.7°C 68% Calm Calm -- 17.72 in600.1 mb 0.00 in0.0 mm 0.00 in/hr0.0 mm/hr 0.00 in0.0 mm
04:07 AM 38.7°F3.7°C 29.0°F-1.7°C 68% Calm Calm -- 17.72 in600.1 mb 0.00 in0.0 mm 0.00 in/hr0.0 mm/hr 0.00 in0.0 mm
04:06 AM 38.7°F3.7°C 29.0°F-1.7°C 68% Calm Calm -- 17.72 in600.1 mb 0.00 in0.0 mm 0.00 in/hr0.0 mm/hr 0.00 in0.0 mm
04:05 AM 38.7°F3.7°C 29.0°F-1.7°C 68% Calm Calm -- 17.72 in600.1 mb 0.00 in0.0 mm 0.00 in/hr0.0 mm/hr 0.00 in0.0 mm
04:04 AM 38.7°F3.7°C 29.0°F-1.7°C 68% Calm Calm -- 17.72 in600.1 mb 0.00 in0.0 mm 0.00 in/hr0.0 mm/hr 0.00 in0.0 mm
04:02 AM 38.7°F3.7°C 29.0°F-1.7°C 68% Calm Calm -- 17.72 in600.1 mb 0.00 in0.0 mm 0.00 in/hr0.0 mm/hr 0.00 in0.0 mm
04:01 AM 38.5°F3.6°C 28.5°F-1.9°C 67% Calm Calm -- 17.72 in600.1 mb 0.00 in0.0 mm 0.00 in/hr0.0 mm/hr 0.00 in0.0 mm
04:00 AM 38.5°F3.6°C 28.5°F-1.9°C 67% Calm Calm -- 17.72 in600.1 mb 0.00 in0.0 mm 0.00 in/hr0.0 mm/hr 0.00 in0.0 mm
03:59 AM 38.5°F3.6°C 28.5°F-1.9°C 67% Calm Calm -- 17.72 in600.1 mb 0.00 in0.0 mm 0.00 in/hr0.0 mm/hr 0.00 in0.0 mm
03:57 AM 38.5°F3.6°C 28.5°F-1.9°C 67% Calm Calm -- 17.72 in600.1 mb 0.00 in0.0 mm 0.00 in/hr0.0 mm/hr 0.00 in0.0 mm
03:56 AM 38.5°F3.6°C 28.5°F-1.9°C 67% Calm Calm -- 17.72 in600.1 mb 0.00 in0.0 mm 0.00 in/hr0.0 mm/hr 0.00 in0.0 mm
03:55 AM 38.5°F3.6°C 28.5°F-1.9°C 67% Calm Calm -- 17.72 in600.1 mb 0.00 in0.0 mm 0.00 in/hr0.0 mm/hr 0.00 in0.0 mm
03:54 AM 38.5°F3.6°C 28.5°F-1.9°C 67% Calm Calm -- 17.72 in600.1 mb 0.00 in0.0 mm 0.00 in/hr0.0 mm/hr 0.00 in0.0 mm
03:53 AM 38.5°F3.6°C 28.5°F-1.9°C 67% Calm Calm -- 17.72 in600.1 mb 0.00 in0.0 mm 0.00 in/hr0.0 mm/hr 0.00 in0.0 mm
03:52 AM 38.5°F3.6°C 28.5°F-1.9°C 67% Calm Calm -- 17.72 in600.1 mb 0.00 in0.0 mm 0.00 in/hr0.0 mm/hr 0.00 in0.0 mm
03:50 AM 38.5°F3.6°C 28.5°F-1.9°C 67% Calm Calm -- 17.72 in600.1 mb 0.00 in0.0 mm 0.00 in/hr0.0 mm/hr 0.00 in0.0 mm
03:48 AM 38.5°F3.6°C 28.5°F-1.9°C 67% Calm Calm -- 17.72 in600.1 mb 0.00 in0.0 mm 0.00 in/hr0.0 mm/hr 0.00 in0.0 mm
03:47 AM 38.1°F3.4°C 27.8°F-2.3°C 66% Calm Calm -- 17.72 in600.1 mb 0.00 in0.0 mm 0.00 in/hr0.0 mm/hr 0.00 in0.0 mm
03:46 AM 38.1°F3.4°C 27.8°F-2.3°C 66% Calm Calm -- 17.72 in600.1 mb 0.00 in0.0 mm 0.00 in/hr0.0 mm/hr 0.00 in0.0 mm
03:44 AM 38.1°F3.4°C 27.8°F-2.3°C 66% Calm Calm -- 17.72 in600.1 mb 0.00 in0.0 mm 0.00 in/hr0.0 mm/hr 0.00 in0.0 mm
03:43 AM 38.1°F3.4°C 27.8°F-2.3°C 66% Calm Calm -- 17.72 in600.1 mb 0.00 in0.0 mm 0.00 in/hr0.0 mm/hr 0.00 in0.0 mm
03:42 AM 38.1°F3.4°C 27.8°F-2.3°C 66% Calm Calm -- 17.72 in600.1 mb 0.00 in0.0 mm 0.00 in/hr0.0 mm/hr 0.00 in0.0 mm
03:40 AM 38.1°F3.4°C 27.8°F-2.3°C 66% Calm Calm -- 17.72 in600.1 mb 0.00 in0.0 mm 0.00 in/hr0.0 mm/hr 0.00 in0.0 mm
03:39 AM 38.1°F3.4°C 27.8°F-2.3°C 66% Calm Calm -- 17.72 in600.1 mb 0.00 in0.0 mm 0.00 in/hr0.0 mm/hr 0.00 in0.0 mm
03:37 AM 37.9°F3.3°C 27.6°F-2.4°C 66% Calm Calm -- 17.72 in600.1 mb 0.00 in0.0 mm 0.00 in/hr0.0 mm/hr 0.00 in0.0 mm
03:36 AM 37.8°F3.2°C 27.1°F-2.7°C 65% Calm Calm -- 17.72 in600.1 mb 0.00 in0.0 mm 0.00 in/hr0.0 mm/hr 0.00 in0.0 mm
03:35 AM 37.8°F3.2°C 27.1°F-2.7°C 65% Calm Calm -- 17.72 in600.1 mb 0.00 in0.0 mm 0.00 in/hr0.0 mm/hr 0.00 in0.0 mm
03:33 AM 37.8°F3.2°C 27.1°F-2.7°C 65% Calm Calm -- 17.72 in600.1 mb 0.00 in0.0 mm 0.00 in/hr0.0 mm/hr 0.00 in0.0 mm
03:32 AM 37.8°F3.2°C 27.1°F-2.7°C 65% Calm Calm -- 17.72 in600.1 mb 0.00 in0.0 mm 0.00 in/hr0.0 mm/hr 0.00 in0.0 mm
03:31 AM 37.8°F3.2°C 27.1°F-2.7°C 65% Calm Calm -- 17.72 in600.1 mb 0.00 in0.0 mm 0.00 in/hr0.0 mm/hr 0.00 in0.0 mm
03:29 AM 37.8°F3.2°C 27.1°F-2.7°C 65% Calm Calm -- 17.72 in600.1 mb 0.00 in0.0 mm 0.00 in/hr0.0 mm/hr 0.00 in0.0 mm
03:28 AM 37.9°F3.3°C 27.2°F-2.7°C 65% Calm Calm -- 17.72 in600.1 mb 0.00 in0.0 mm 0.00 in/hr0.0 mm/hr 0.00 in0.0 mm
03:26 AM 37.9°F3.3°C 27.2°F-2.7°C 65% Calm Calm -- 17.72 in600.1 mb 0.00 in0.0 mm 0.00 in/hr0.0 mm/hr 0.00 in0.0 mm
03:25 AM 37.9°F3.3°C 27.2°F-2.7°C 65% Calm Calm -- 17.72 in600.1 mb 0.00 in0.0 mm 0.00 in/hr0.0 mm/hr 0.00 in0.0 mm
03:23 AM 37.9°F3.3°C 27.2°F-2.7°C 65% Calm Calm -- 17.72 in600.1 mb 0.00 in0.0 mm 0.00 in/hr0.0 mm/hr 0.00 in0.0 mm
03:22 AM 37.9°F3.3°C 27.2°F-2.7°C 65% Calm Calm -- 17.72 in600.1 mb 0.00 in0.0 mm 0.00 in/hr0.0 mm/hr 0.00 in0.0 mm
03:21 AM 37.9°F3.3°C 27.2°F-2.7°C 65% Calm Calm -- 17.72 in600.1 mb 0.00 in0.0 mm 0.00 in/hr0.0 mm/hr 0.00 in0.0 mm
03:19 AM 37.9°F3.3°C 26.9°F-2.8°C 64% Calm Calm -- 17.72 in600.1 mb 0.00 in0.0 mm 0.00 in/hr0.0 mm/hr 0.00 in0.0 mm
03:18 AM 37.9°F3.3°C 26.9°F-2.8°C 64% Calm Calm -- 17.72 in600.1 mb 0.00 in0.0 mm 0.00 in/hr0.0 mm/hr 0.00 in0.0 mm
03:16 AM 37.9°F3.3°C 26.9°F-2.8°C 64% Calm Calm -- 17.72 in600.1 mb 0.00 in0.0 mm 0.00 in/hr0.0 mm/hr 0.00 in0.0 mm
03:15 AM 37.9°F3.3°C 26.9°F-2.8°C 64% Calm Calm -- 17.72 in600.1 mb 0.00 in0.0 mm 0.00 in/hr0.0 mm/hr 0.00 in0.0 mm
03:14 AM 37.9°F3.3°C 26.9°F-2.8°C 64% Calm Calm -- 17.72 in600.1 mb 0.00 in0.0 mm 0.00 in/hr0.0 mm/hr 0.00 in0.0 mm
03:12 AM 37.9°F3.3°C 26.9°F-2.8°C 64% Calm Calm -- 17.72 in600.1 mb 0.00 in0.0 mm 0.00 in/hr0.0 mm/hr 0.00 in0.0 mm
03:11 AM 38.1°F3.4°C 27.0°F-2.8°C 64% Calm Calm -- 17.72 in600.1 mb 0.00 in0.0 mm 0.00 in/hr0.0 mm/hr 0.00 in0.0 mm
03:10 AM 38.1°F3.4°C 27.0°F-2.8°C 64% Calm Calm -- 17.72 in600.1 mb 0.00 in0.0 mm 0.00 in/hr0.0 mm/hr 0.00 in0.0 mm
03:09 AM 38.1°F3.4°C 27.0°F-2.8°C 64% Calm Calm -- 17.72 in600.1 mb 0.00 in0.0 mm 0.00 in/hr0.0 mm/hr 0.00 in0.0 mm
03:08 AM 38.1°F3.4°C 27.0°F-2.8°C 64% Calm Calm -- 17.72 in600.1 mb 0.00 in0.0 mm 0.00 in/hr0.0 mm/hr 0.00 in0.0 mm
03:07 AM 38.1°F3.4°C 27.0°F-2.8°C 64% Calm Calm -- 17.72 in600.1 mb 0.00 in0.0 mm 0.00 in/hr0.0 mm/hr 0.00 in0.0 mm
03:05 AM 38.1°F3.4°C 27.0°F-2.8°C 64% Calm Calm -- 17.72 in600.1 mb 0.00 in0.0 mm 0.00 in/hr0.0 mm/hr 0.00 in0.0 mm
03:04 AM 38.1°F3.4°C 27.0°F-2.8°C 64% Calm Calm -- 17.72 in600.1 mb 0.00 in0.0 mm 0.00 in/hr0.0 mm/hr 0.00 in0.0 mm
03:02 AM 38.1°F3.4°C 27.0°F-2.8°C 64% Calm Calm -- 17.72 in600.1 mb 0.00 in0.0 mm 0.00 in/hr0.0 mm/hr 0.00 in0.0 mm
03:01 AM 38.1°F3.4°C 27.0°F-2.8°C 64% Calm Calm -- 17.72 in600.1 mb 0.00 in0.0 mm 0.00 in/hr0.0 mm/hr 0.00 in0.0 mm
03:00 AM 38.1°F3.4°C 27.0°F-2.8°C 64% Calm Calm -- 17.72 in600.1 mb 0.00 in0.0 mm 0.00 in/hr0.0 mm/hr 0.00 in0.0 mm
02:59 AM 38.1°F3.4°C 27.0°F-2.8°C 64% Calm Calm -- 17.72 in600.1 mb 0.00 in0.0 mm 0.00 in/hr0.0 mm/hr 0.00 in0.0 mm
02:58 AM 38.1°F3.4°C 27.0°F-2.8°C 64% Calm Calm -- 17.72 in600.1 mb 0.00 in0.0 mm 0.00 in/hr0.0 mm/hr 0.00 in0.0 mm
02:57 AM 38.1°F3.4°C 27.0°F-2.8°C 64% Calm Calm -- 17.72 in600.1 mb 0.00 in0.0 mm 0.00 in/hr0.0 mm/hr 0.00 in0.0 mm
02:55 AM 38.1°F3.4°C 27.0°F-2.8°C 64% Calm Calm -- 17.72 in600.1 mb 0.00 in0.0 mm 0.00 in/hr0.0 mm/hr 0.00 in0.0 mm
02:54 AM 38.1°F3.4°C 26.7°F-2.9°C 63% Calm Calm -- 17.72 in600.1 mb 0.00 in0.0 mm 0.00 in/hr0.0 mm/hr 0.00 in0.0 mm
02:52 AM 38.1°F3.4°C 26.7°F-2.9°C 63% Calm Calm -- 17.72 in600.1 mb 0.00 in0.0 mm 0.00 in/hr0.0 mm/hr 0.00 in0.0 mm
02:51 AM 38.1°F3.4°C 26.7°F-2.9°C 63% Calm Calm -- 17.72 in600.1 mb 0.00 in0.0 mm 0.00 in/hr0.0 mm/hr 0.00 in0.0 mm
02:50 AM 38.1°F3.4°C 26.7°F-2.9°C 63% Calm Calm -- 17.72 in600.1 mb 0.00 in0.0 mm 0.00 in/hr0.0 mm/hr 0.00 in0.0 mm
02:49 AM 38.1°F3.4°C 26.7°F-2.9°C 63% Calm Calm -- 17.72 in600.1 mb 0.00 in0.0 mm 0.00 in/hr0.0 mm/hr 0.00 in0.0 mm
02:47 AM 38.1°F3.4°C 26.7°F-2.9°C 63% Calm Calm -- 17.72 in600.1 mb 0.00 in0.0 mm 0.00 in/hr0.0 mm/hr 0.00 in0.0 mm
02:46 AM 38.1°F3.4°C 26.7°F-2.9°C 63% Calm Calm -- 17.72 in600.1 mb 0.00 in0.0 mm 0.00 in/hr0.0 mm/hr 0.00 in0.0 mm
02:45 AM 38.3°F3.5°C 26.8°F-2.9°C 63% Calm Calm -- 17.72 in600.1 mb 0.00 in0.0 mm 0.00 in/hr0.0 mm/hr 0.00 in0.0 mm
02:44 AM 38.3°F3.5°C 26.8°F-2.9°C 63% Calm Calm -- 17.72 in600.1 mb 0.00 in0.0 mm 0.00 in/hr0.0 mm/hr 0.00 in0.0 mm
02:43 AM 38.3°F3.5°C 26.8°F-2.9°C 63% Calm Calm -- 17.72 in600.1 mb 0.00 in0.0 mm 0.00 in/hr0.0 mm/hr 0.00 in0.0 mm
02:42 AM 38.3°F3.5°C 26.8°F-2.9°C 63% Calm Calm -- 17.72 in600.1 mb 0.00 in0.0 mm 0.00 in/hr0.0 mm/hr 0.00 in0.0 mm
02:40 AM 38.3°F3.5°C 26.8°F-2.9°C 63% Calm Calm -- 17.72 in600.1 mb 0.00 in0.0 mm 0.00 in/hr0.0 mm/hr 0.00 in0.0 mm
02:39 AM 38.3°F3.5°C 26.8°F-2.9°C 63% Calm Calm -- 17.72 in600.1 mb 0.00 in0.0 mm 0.00 in/hr0.0 mm/hr 0.00 in0.0 mm
02:38 AM 38.5°F3.6°C 27.0°F-2.8°C 63% Calm Calm -- 17.72 in600.1 mb 0.00 in0.0 mm 0.00 in/hr0.0 mm/hr 0.00 in0.0 mm
02:37 AM 38.5°F3.6°C 27.0°F-2.8°C 63% Calm Calm -- 17.72 in600.1 mb 0.00 in0.0 mm 0.00 in/hr0.0 mm/hr 0.00 in0.0 mm
02:36 AM 38.7°F3.7°C 26.8°F-2.9°C 62% Calm Calm -- 17.72 in600.1 mb 0.00 in0.0 mm 0.00 in/hr0.0 mm/hr 0.00 in0.0 mm
02:34 AM 38.7°F3.7°C 26.8°F-2.9°C 62% Calm Calm -- 17.72 in600.1 mb 0.00 in0.0 mm 0.00 in/hr0.0 mm/hr 0.00 in0.0 mm
02:33 AM 38.7°F3.7°C 26.8°F-2.9°C 62% Calm Calm -- 17.72 in600.1 mb 0.00 in0.0 mm 0.00 in/hr0.0 mm/hr 0.00 in0.0 mm
02:31 AM 38.7°F3.7°C 26.8°F-2.9°C 62% Calm Calm -- 17.72 in600.1 mb 0.00 in0.0 mm 0.00 in/hr0.0 mm/hr 0.00 in0.0 mm
02:30 AM 38.7°F3.7°C 26.8°F-2.9°C 62% Calm Calm -- 17.72 in600.1 mb 0.00 in0.0 mm 0.00 in/hr0.0 mm/hr 0.00 in0.0 mm
02:29 AM 38.7°F3.7°C 26.8°F-2.9°C 62% Calm Calm -- 17.72 in600.1 mb 0.00 in0.0 mm 0.00 in/hr0.0 mm/hr 0.00 in0.0 mm
02:27 AM 38.8°F3.8°C 27.0°F-2.8°C 62% Calm Calm -- 17.72 in600.1 mb 0.00 in0.0 mm 0.00 in/hr0.0 mm/hr 0.00 in0.0 mm
02:26 AM 38.8°F3.8°C 27.0°F-2.8°C 62% Calm Calm -- 17.72 in600.1 mb 0.00 in0.0 mm 0.00 in/hr0.0 mm/hr 0.00 in0.0 mm
02:25 AM 38.8°F3.8°C 27.0°F-2.8°C 62% Calm Calm -- 17.72 in600.1 mb 0.00 in0.0 mm 0.00 in/hr0.0 mm/hr 0.00 in0.0 mm
02:23 AM 38.8°F3.8°C 27.0°F-2.8°C 62% Calm Calm -- 17.72 in600.1 mb 0.00 in0.0 mm 0.00 in/hr0.0 mm/hr 0.00 in0.0 mm
02:22 AM 38.8°F3.8°C 27.0°F-2.8°C 62% Calm Calm -- 17.72 in600.1 mb 0.00 in0.0 mm 0.00 in/hr0.0 mm/hr 0.00 in0.0 mm
02:20 AM 39.0°F3.9°C 27.1°F-2.7°C 62% Calm Calm -- 17.72 in600.1 mb 0.00 in0.0 mm 0.00 in/hr0.0 mm/hr 0.00 in0.0 mm
02:19 AM 39.0°F3.9°C 27.1°F-2.7°C 62% Calm Calm -- 17.72 in600.1 mb 0.00 in0.0 mm 0.00 in/hr0.0 mm/hr 0.00 in0.0 mm
02:18 AM 39.0°F3.9°C 27.1°F-2.7°C 62% Calm Calm -- 17.72 in600.1 mb 0.00 in0.0 mm 0.00 in/hr0.0 mm/hr 0.00 in0.0 mm
02:17 AM 39.0°F3.9°C 27.1°F-2.7°C 62% Calm Calm -- 17.72 in600.1 mb 0.00 in0.0 mm 0.00 in/hr0.0 mm/hr 0.00 in0.0 mm
02:16 AM 39.0°F3.9°C 27.1°F-2.7°C 62% Calm Calm -- 17.72 in600.1 mb 0.00 in0.0 mm 0.00 in/hr0.0 mm/hr 0.00 in0.0 mm
02:15 AM 39.0°F3.9°C 27.1°F-2.7°C 62% Calm Calm -- 17.72 in600.1 mb 0.00 in0.0 mm 0.00 in/hr0.0 mm/hr 0.00 in0.0 mm
02:13 AM 39.0°F3.9°C 27.1°F-2.7°C 62% Calm Calm -- 17.72 in600.1 mb 0.00 in0.0 mm 0.00 in/hr0.0 mm/hr 0.00 in0.0 mm
02:12 AM 39.0°F3.9°C 27.1°F-2.7°C 62% Calm Calm -- 17.72 in600.1 mb 0.00 in0.0 mm 0.00 in/hr0.0 mm/hr 0.00 in0.0 mm
02:10 AM 39.0°F3.9°C 27.1°F-2.7°C 62% Calm Calm -- 17.72 in600.1 mb 0.00 in0.0 mm 0.00 in/hr0.0 mm/hr 0.00 in0.0 mm
02:09 AM 39.4°F4.1°C 27.1°F-2.7°C 61% Calm Calm -- 17.72 in600.1 mb 0.00 in0.0 mm 0.00 in/hr0.0 mm/hr 0.00 in0.0 mm
02:08 AM 39.4°F4.1°C 27.1°F-2.7°C 61% Calm Calm -- 17.72 in600.1 mb 0.00 in0.0 mm 0.00 in/hr0.0 mm/hr 0.00 in0.0 mm
02:07 AM 39.4°F4.1°C 27.1°F-2.7°C 61% Calm Calm -- 17.72 in600.1 mb 0.00 in0.0 mm 0.00 in/hr0.0 mm/hr 0.00 in0.0 mm
02:05 AM 39.4°F4.1°C 27.1°F-2.7°C 61% Calm Calm -- 17.72 in600.1 mb 0.00 in0.0 mm 0.00 in/hr0.0 mm/hr 0.00 in0.0 mm
02:03 AM 39.6°F4.2°C 27.2°F-2.7°C 61% Calm Calm -- 17.72 in600.1 mb 0.00 in0.0 mm 0.00 in/hr0.0 mm/hr 0.00 in0.0 mm
02:02 AM 39.6°F4.2°C 27.2°F-2.7°C 61% Calm Calm -- 17.72 in600.1 mb 0.00 in0.0 mm 0.00 in/hr0.0 mm/hr 0.00 in0.0 mm
02:01 AM 39.6°F4.2°C 27.2°F-2.7°C 61% Calm Calm -- 17.72 in600.1 mb 0.00 in0.0 mm 0.00 in/hr0.0 mm/hr 0.00 in0.0 mm
02:00 AM 39.6°F4.2°C 27.2°F-2.7°C 61% Calm Calm -- 17.72 in600.1 mb 0.00 in0.0 mm 0.00 in/hr0.0 mm/hr 0.00 in0.0 mm
01:58 AM 39.6°F4.2°C 27.2°F-2.7°C 61% Calm Calm -- 17.72 in600.1 mb 0.00 in0.0 mm 0.00 in/hr0.0 mm/hr 0.00 in0.0 mm
01:57 AM 39.6°F4.2°C 27.2°F-2.7°C 61% Calm Calm -- 17.72 in600.1 mb 0.00 in0.0 mm 0.00 in/hr0.0 mm/hr 0.00 in0.0 mm
01:56 AM 39.6°F4.2°C 27.2°F-2.7°C 61% Calm Calm -- 17.72 in600.1 mb 0.00 in0.0 mm 0.00 in/hr0.0 mm/hr 0.00 in0.0 mm
01:55 AM 39.6°F4.2°C 27.2°F-2.7°C 61% Calm Calm -- 17.72 in600.1 mb 0.00 in0.0 mm 0.00 in/hr0.0 mm/hr 0.00 in0.0 mm
01:54 AM 39.6°F4.2°C 27.2°F-2.7°C 61% Calm Calm -- 17.72 in600.1 mb 0.00 in0.0 mm 0.00 in/hr0.0 mm/hr 0.00 in0.0 mm
01:53 AM 39.6°F4.2°C 27.2°F-2.7°C 61% Calm Calm -- 17.72 in600.1 mb 0.00 in0.0 mm 0.00 in/hr0.0 mm/hr 0.00 in0.0 mm
01:51 AM 39.6°F4.2°C 27.2°F-2.7°C 61% Calm Calm -- 17.72 in600.1 mb 0.00 in0.0 mm 0.00 in/hr0.0 mm/hr 0.00 in0.0 mm
01:50 AM 39.6°F4.2°C 26.8°F-2.9°C 60% Calm Calm -- 17.72 in600.1 mb 0.00 in0.0 mm 0.00 in/hr0.0 mm/hr 0.00 in0.0 mm
01:48 AM 39.7°F4.3°C 27.0°F-2.8°C 60% Calm Calm -- 17.72 in600.1 mb 0.00 in0.0 mm 0.00 in/hr0.0 mm/hr 0.00 in0.0 mm
01:47 AM 39.7°F4.3°C 27.0°F-2.8°C 60% Calm Calm -- 17.72 in600.1 mb 0.00 in0.0 mm 0.00 in/hr0.0 mm/hr 0.00 in0.0 mm
01:45 AM 39.7°F4.3°C 27.0°F-2.8°C 60% Calm Calm -- 17.72 in600.1 mb 0.00 in0.0 mm 0.00 in/hr0.0 mm/hr 0.00 in0.0 mm
01:44 AM 39.7°F4.3°C 27.0°F-2.8°C 60% Calm Calm -- 17.72 in600.1 mb 0.00 in0.0 mm 0.00 in/hr0.0 mm/hr 0.00 in0.0 mm
01:43 AM 39.7°F4.3°C 27.0°F-2.8°C 60% Calm Calm -- 17.72 in600.1 mb 0.00 in0.0 mm 0.00 in/hr0.0 mm/hr 0.00 in0.0 mm
01:41 AM 39.7°F4.3°C 27.0°F-2.8°C 60% Calm Calm -- 17.72 in600.1 mb 0.00 in0.0 mm 0.00 in/hr0.0 mm/hr 0.00 in0.0 mm
01:40 AM 39.7°F4.3°C 27.0°F-2.8°C 60% Calm Calm -- 17.72 in600.1 mb 0.00 in0.0 mm 0.00 in/hr0.0 mm/hr 0.00 in0.0 mm
01:38 AM 39.7°F4.3°C 27.0°F-2.8°C 60% Calm Calm -- 17.72 in600.1 mb 0.00 in0.0 mm 0.00 in/hr0.0 mm/hr 0.00 in0.0 mm
01:37 AM 39.7°F4.3°C 27.0°F-2.8°C 60% Calm Calm -- 17.72 in600.1 mb 0.00 in0.0 mm 0.00 in/hr0.0 mm/hr 0.00 in0.0 mm
01:35 AM 40.1°F4.5°C 26.9°F-2.8°C 59% Calm Calm -- 17.72 in600.1 mb 0.00 in0.0 mm 0.00 in/hr0.0 mm/hr 0.00 in0.0 mm
01:34 AM 40.1°F4.5°C 26.9°F-2.8°C 59% Calm Calm -- 17.72 in600.1 mb 0.00 in0.0 mm 0.00 in/hr0.0 mm/hr 0.00 in0.0 mm
01:33 AM 40.1°F4.5°C 26.9°F-2.8°C 59% Calm Calm -- 17.72 in600.1 mb 0.00 in0.0 mm 0.00 in/hr0.0 mm/hr 0.00 in0.0 mm
01:31 AM 40.1°F4.5°C 26.9°F-2.8°C 59% Calm Calm -- 17.72 in600.1 mb 0.00 in0.0 mm 0.00 in/hr0.0 mm/hr 0.00 in0.0 mm
01:30 AM 40.1°F4.5°C 26.9°F-2.8°C 59% Calm Calm -- 17.72 in600.1 mb 0.00 in0.0 mm 0.00 in/hr0.0 mm/hr 0.00 in0.0 mm
01:29 AM 40.1°F4.5°C 26.9°F-2.8°C 59% Calm Calm -- 17.72 in600.1 mb 0.00 in0.0 mm 0.00 in/hr0.0 mm/hr 0.00 in0.0 mm
01:27 AM 40.3°F4.6°C 27.1°F-2.7°C 59% Calm Calm -- 17.72 in600.1 mb 0.00 in0.0 mm 0.00 in/hr0.0 mm/hr 0.00 in0.0 mm
01:26 AM 40.3°F4.6°C 27.1°F-2.7°C 59% Calm Calm -- 17.72 in600.1 mb 0.00 in0.0 mm 0.00 in/hr0.0 mm/hr 0.00 in0.0 mm
01:24 AM 40.3°F4.6°C 27.1°F-2.7°C 59% Calm Calm -- 17.72 in600.1 mb 0.00 in0.0 mm 0.00 in/hr0.0 mm/hr 0.00 in0.0 mm
01:23 AM 40.3°F4.6°C 27.1°F-2.7°C 59% Calm Calm -- 17.72 in600.1 mb 0.00 in0.0 mm 0.00 in/hr0.0 mm/hr 0.00 in0.0 mm
01:22 AM 40.3°F4.6°C 27.1°F-2.7°C 59% Calm Calm -- 17.72 in600.1 mb 0.00 in0.0 mm 0.00 in/hr0.0 mm/hr 0.00 in0.0 mm
01:20 AM 40.3°F4.6°C 27.1°F-2.7°C 59% Calm Calm -- 17.72 in600.1 mb 0.00 in0.0 mm 0.00 in/hr0.0 mm/hr 0.00 in0.0 mm
01:19 AM 40.3°F4.6°C 27.1°F-2.7°C 59% Calm Calm -- 17.72 in600.1 mb 0.00 in0.0 mm 0.00 in/hr0.0 mm/hr 0.00 in0.0 mm
01:17 AM 40.5°F4.7°C 27.3°F-2.6°C 59% Calm Calm -- 17.72 in600.1 mb 0.00 in0.0 mm 0.00 in/hr0.0 mm/hr 0.00 in0.0 mm
01:16 AM 40.5°F4.7°C 27.3°F-2.6°C 59% Calm Calm -- 17.72 in600.1 mb 0.00 in0.0 mm 0.00 in/hr0.0 mm/hr 0.00 in0.0 mm
01:15 AM 40.5°F4.7°C 27.3°F-2.6°C 59% Calm Calm -- 17.72 in600.1 mb 0.00 in0.0 mm 0.00 in/hr0.0 mm/hr 0.00 in0.0 mm
01:13 AM 40.5°F4.7°C 27.3°F-2.6°C 59% Calm Calm -- 17.72 in600.1 mb 0.00 in0.0 mm 0.00 in/hr0.0 mm/hr 0.00 in0.0 mm
01:12 AM 40.5°F4.7°C 27.3°F-2.6°C 59% Calm Calm -- 17.72 in600.1 mb 0.00 in0.0 mm 0.00 in/hr0.0 mm/hr 0.00 in0.0 mm
01:11 AM 40.5°F4.7°C 27.3°F-2.6°C 59% Calm Calm -- 17.72 in600.1 mb 0.00 in0.0 mm 0.00 in/hr0.0 mm/hr 0.00 in0.0 mm
01:10 AM 40.5°F4.7°C 27.3°F-2.6°C 59% Calm Calm -- 17.72 in600.1 mb 0.00 in0.0 mm 0.00 in/hr0.0 mm/hr 0.00 in0.0 mm
01:09 AM 40.5°F4.7°C 27.3°F-2.6°C 59% Calm Calm -- 17.72 in600.1 mb 0.00 in0.0 mm 0.00 in/hr0.0 mm/hr 0.00 in0.0 mm
01:08 AM 40.5°F4.7°C 27.3°F-2.6°C 59% Calm Calm -- 17.72 in600.1 mb 0.00 in0.0 mm 0.00 in/hr0.0 mm/hr 0.00 in0.0 mm
01:06 AM 40.5°F4.7°C 27.3°F-2.6°C 59% Calm Calm -- 17.72 in600.1 mb 0.00 in0.0 mm 0.00 in/hr0.0 mm/hr 0.00 in0.0 mm
01:05 AM 40.5°F4.7°C 27.3°F-2.6°C 59% Calm Calm -- 17.72 in600.1 mb 0.00 in0.0 mm 0.00 in/hr0.0 mm/hr 0.00 in0.0 mm
01:04 AM 40.5°F4.7°C 27.3°F-2.6°C 59% Calm Calm -- 17.72 in600.1 mb 0.00 in0.0 mm 0.00 in/hr0.0 mm/hr 0.00 in0.0 mm
01:03 AM 40.5°F4.7°C 27.3°F-2.6°C 59% Calm Calm -- 17.72 in600.1 mb 0.00 in0.0 mm 0.00 in/hr0.0 mm/hr 0.00 in0.0 mm
01:02 AM 40.6°F4.8°C 27.0°F-2.8°C 58% Calm Calm -- 17.72 in600.1 mb 0.00 in0.0 mm 0.00 in/hr0.0 mm/hr 0.00 in0.0 mm
01:01 AM 40.6°F4.8°C 27.0°F-2.8°C 58% Calm Calm -- 17.72 in600.1 mb 0.00 in0.0 mm 0.00 in/hr0.0 mm/hr 0.00 in0.0 mm
12:59 AM 40.6°F4.8°C 27.0°F-2.8°C 58% Calm Calm -- 17.72 in600.1 mb 0.00 in0.0 mm 0.00 in/hr0.0 mm/hr 0.00 in0.0 mm
12:58 AM 40.6°F4.8°C 27.0°F-2.8°C 58% Calm Calm -- 17.72 in600.1 mb 0.00 in0.0 mm 0.00 in/hr0.0 mm/hr 0.00 in0.0 mm
12:57 AM 40.6°F4.8°C 27.0°F-2.8°C 58% Calm Calm -- 17.72 in600.1 mb 0.00 in0.0 mm 0.00 in/hr0.0 mm/hr 0.00 in0.0 mm
12:56 AM 40.6°F4.8°C 27.0°F-2.8°C 58% Calm Calm -- 17.72 in600.1 mb 0.00 in0.0 mm 0.00 in/hr0.0 mm/hr 0.00 in0.0 mm
12:55 AM 40.6°F4.8°C 27.0°F-2.8°C 58% Calm Calm -- 17.72 in600.1 mb 0.00 in0.0 mm 0.00 in/hr0.0 mm/hr 0.00 in0.0 mm
12:53 AM 40.5°F4.7°C 26.9°F-2.8°C 58% Calm Calm -- 17.72 in600.1 mb 0.00 in0.0 mm 0.00 in/hr0.0 mm/hr 0.00 in0.0 mm
12:52 AM 40.5°F4.7°C 26.9°F-2.8°C 58% Calm Calm -- 17.72 in600.1 mb 0.00 in0.0 mm 0.00 in/hr0.0 mm/hr 0.00 in0.0 mm
12:51 AM 40.5°F4.7°C 26.9°F-2.8°C 58% Calm Calm -- 17.72 in600.1 mb 0.00 in0.0 mm 0.00 in/hr0.0 mm/hr 0.00 in0.0 mm
12:49 AM 40.5°F4.7°C 26.9°F-2.8°C 58% Calm Calm -- 17.72 in600.1 mb 0.00 in0.0 mm 0.00 in/hr0.0 mm/hr 0.00 in0.0 mm
12:48 AM 40.5°F4.7°C 26.9°F-2.8°C 58% Calm Calm -- 17.72 in600.1 mb 0.00 in0.0 mm 0.00 in/hr0.0 mm/hr 0.00 in0.0 mm
12:47 AM 40.5°F4.7°C 26.9°F-2.8°C 58% Calm Calm -- 17.72 in600.1 mb 0.00 in0.0 mm 0.00 in/hr0.0 mm/hr 0.00 in0.0 mm
12:46 AM 40.6°F4.8°C 27.0°F-2.8°C 58% Calm Calm -- 17.72 in600.1 mb 0.00 in0.0 mm 0.00 in/hr0.0 mm/hr 0.00 in0.0 mm
12:45 AM 40.6°F4.8°C 27.0°F-2.8°C 58% Calm Calm -- 17.72 in600.1 mb 0.00 in0.0 mm 0.00 in/hr0.0 mm/hr 0.00 in0.0 mm
12:44 AM 40.6°F4.8°C 27.0°F-2.8°C 58% Calm Calm -- 17.72 in600.1 mb 0.00 in0.0 mm 0.00 in/hr0.0 mm/hr 0.00 in0.0 mm
12:42 AM 40.6°F4.8°C 27.0°F-2.8°C 58% Calm Calm -- 17.72 in600.1 mb 0.00 in0.0 mm 0.00 in/hr0.0 mm/hr 0.00 in0.0 mm
12:41 AM 40.6°F4.8°C 27.0°F-2.8°C 58% Calm Calm -- 17.72 in600.1 mb 0.00 in0.0 mm 0.00 in/hr0.0 mm/hr 0.00 in0.0 mm
12:40 AM 40.6°F4.8°C 27.0°F-2.8°C 58% Calm Calm -- 17.72 in600.1 mb 0.00 in0.0 mm 0.00 in/hr0.0 mm/hr 0.00 in0.0 mm
12:39 AM 40.6°F4.8°C 27.0°F-2.8°C 58% Calm Calm -- 17.72 in600.1 mb 0.00 in0.0 mm 0.00 in/hr0.0 mm/hr 0.00 in0.0 mm
12:38 AM 40.6°F4.8°C 27.0°F-2.8°C 58% Calm Calm -- 17.72 in600.1 mb 0.00 in0.0 mm 0.00 in/hr0.0 mm/hr 0.00 in0.0 mm
12:37 AM 40.6°F4.8°C 27.0°F-2.8°C 58% Calm Calm -- 17.72 in600.1 mb 0.00 in0.0 mm 0.00 in/hr0.0 mm/hr 0.00 in0.0 mm
12:35 AM 40.6°F4.8°C 27.0°F-2.8°C 58% Calm Calm -- 17.72 in600.1 mb 0.00 in0.0 mm 0.00 in/hr0.0 mm/hr 0.00 in0.0 mm
12:34 AM 40.6°F4.8°C 27.0°F-2.8°C 58% Calm Calm 2.7 mph4.3 kmh 17.72 in600.1 mb 0.00 in0.0 mm 0.00 in/hr0.0 mm/hr 0.00 in0.0 mm
12:32 AM 40.6°F4.8°C 27.0°F-2.8°C 58% 2.7 mph SSW4.3 kmh SSW 2.7 mph4.3 kmh 17.72 in600.1 mb 0.00 in0.0 mm 0.00 in/hr0.0 mm/hr 0.00 in0.0 mm
12:31 AM 40.6°F4.8°C 27.0°F-2.8°C 58% 2.7 mph SSW4.3 kmh SSW 3.2 mph5.1 kmh 17.72 in600.1 mb 0.00 in0.0 mm 0.00 in/hr0.0 mm/hr 0.00 in0.0 mm
12:30 AM 40.6°F4.8°C 27.0°F-2.8°C 58% 3.2 mph SSW5.1 kmh SSW 3.2 mph5.1 kmh 17.72 in600.1 mb 0.00 in0.0 mm 0.00 in/hr0.0 mm/hr 0.00 in0.0 mm
12:28 AM 40.6°F4.8°C 27.0°F-2.8°C 58% Calm Calm -- 17.72 in600.1 mb 0.00 in0.0 mm 0.00 in/hr0.0 mm/hr 0.00 in0.0 mm
12:27 AM 40.6°F4.8°C 26.6°F-3.0°C 57% Calm Calm -- 17.72 in600.1 mb 0.00 in0.0 mm 0.00 in/hr0.0 mm/hr 0.00 in0.0 mm
12:26 AM 40.6°F4.8°C 26.6°F-3.0°C 57% Calm Calm -- 17.72 in600.1 mb 0.00 in0.0 mm 0.00 in/hr0.0 mm/hr 0.00 in0.0 mm
12:25 AM 40.6°F4.8°C 26.6°F-3.0°C 57% Calm Calm -- 17.72 in600.1 mb 0.00 in0.0 mm 0.00 in/hr0.0 mm/hr 0.00 in0.0 mm
12:24 AM 40.6°F4.8°C 26.6°F-3.0°C 57% Calm Calm -- 17.72 in600.1 mb 0.00 in0.0 mm 0.00 in/hr0.0 mm/hr 0.00 in0.0 mm
12:23 AM 40.6°F4.8°C 26.6°F-3.0°C 57% Calm Calm -- 17.72 in600.1 mb 0.00 in0.0 mm 0.00 in/hr0.0 mm/hr 0.00 in0.0 mm
12:21 AM 40.6°F4.8°C 26.6°F-3.0°C 57% Calm Calm -- 17.72 in600.1 mb 0.00 in0.0 mm 0.00 in/hr0.0 mm/hr 0.00 in0.0 mm
12:20 AM 40.6°F4.8°C 26.6°F-3.0°C 57% Calm Calm -- 17.72 in600.1 mb 0.00 in0.0 mm 0.00 in/hr0.0 mm/hr 0.00 in0.0 mm
12:19 AM 40.6°F4.8°C 26.6°F-3.0°C 57% Calm Calm -- 17.72 in600.1 mb 0.00 in0.0 mm 0.00 in/hr0.0 mm/hr 0.00 in0.0 mm
12:18 AM 40.6°F4.8°C 26.6°F-3.0°C 57% Calm Calm -- 17.72 in600.1 mb 0.00 in0.0 mm 0.00 in/hr0.0 mm/hr 0.00 in0.0 mm
12:17 AM 40.6°F4.8°C 26.6°F-3.0°C 57% Calm Calm -- 17.72 in600.1 mb 0.00 in0.0 mm 0.00 in/hr0.0 mm/hr 0.00 in0.0 mm
12:16 AM 40.6°F4.8°C 26.6°F-3.0°C 57% Calm Calm -- 17.72 in600.1 mb 0.00 in0.0 mm 0.00 in/hr0.0 mm/hr 0.00 in0.0 mm
12:15 AM 40.8°F4.9°C 26.4°F-3.1°C 56% Calm Calm -- 17.72 in600.1 mb 0.00 in0.0 mm 0.00 in/hr0.0 mm/hr 0.00 in0.0 mm
12:13 AM 40.8°F4.9°C 26.4°F-3.1°C 56% Calm Calm -- 17.72 in600.1 mb 0.00 in0.0 mm 0.00 in/hr0.0 mm/hr 0.00 in0.0 mm
12:12 AM 40.8°F4.9°C 26.4°F-3.1°C 56% Calm Calm -- 17.72 in600.1 mb 0.00 in0.0 mm 0.00 in/hr0.0 mm/hr 0.00 in0.0 mm
12:11 AM 40.8°F4.9°C 26.4°F-3.1°C 56% Calm Calm -- 17.72 in600.1 mb 0.00 in0.0 mm 0.00 in/hr0.0 mm/hr 0.00 in0.0 mm
12:10 AM 40.8°F4.9°C 26.4°F-3.1°C 56% Calm Calm -- 17.72 in600.1 mb 0.00 in0.0 mm 0.00 in/hr0.0 mm/hr 0.00 in0.0 mm
12:09 AM 40.8°F4.9°C 26.4°F-3.1°C 56% Calm Calm -- 17.72 in600.1 mb 0.00 in0.0 mm 0.00 in/hr0.0 mm/hr 0.00 in0.0 mm
12:08 AM 40.8°F4.9°C 26.4°F-3.1°C 56% Calm Calm -- 17.72 in600.1 mb 0.00 in0.0 mm 0.00 in/hr0.0 mm/hr 0.00 in0.0 mm
12:06 AM 40.8°F4.9°C 26.4°F-3.1°C 56% Calm Calm -- 17.72 in600.1 mb 0.00 in0.0 mm 0.00 in/hr0.0 mm/hr 0.00 in0.0 mm
12:05 AM 40.8°F4.9°C 26.4°F-3.1°C 56% Calm Calm -- 17.72 in600.1 mb 0.00 in0.0 mm 0.00 in/hr0.0 mm/hr 0.00 in0.0 mm
12:04 AM 40.8°F4.9°C 26.4°F-3.1°C 56% Calm Calm -- 17.72 in600.1 mb 0.00 in0.0 mm 0.00 in/hr0.0 mm/hr 0.00 in0.0 mm
12:02 AM 40.8°F4.9°C 26.4°F-3.1°C 56% 2.7 mph SSE4.3 kmh SSE 2.7 mph4.3 kmh 17.72 in600.1 mb 0.00 in0.0 mm 0.00 in/hr0.0 mm/hr 0.00 in0.0 mm
12:01 AM 40.6°F4.8°C 26.2°F-3.2°C 56% 2.7 mph SSE4.3 kmh SSE 4.3 mph6.9 kmh 17.72 in600.1 mb 0.00 in0.0 mm 0.00 in/hr0.0 mm/hr 0.00 in0.0 mm